sensor_id;sensor_type;location;lat;lon;timestamp;P1;durP1;ratioP1;P2;durP2;ratioP2
15287;SDS011;7745;48.708;9.026;2023-03-01T00:02:23;22.30;;;14.27;;
15287;SDS011;7745;48.708;9.026;2023-03-01T00:05:13;21.90;;;14.93;;
15287;SDS011;7745;48.708;9.026;2023-03-01T00:08:27;22.07;;;15.73;;
15287;SDS011;7745;48.708;9.026;2023-03-01T00:11:22;23.20;;;14.27;;
15287;SDS011;7745;48.708;9.026;2023-03-01T00:14:05;22.97;;;14.97;;
15287;SDS011;7745;48.708;9.026;2023-03-01T00:16:43;21.97;;;14.90;;
15287;SDS011;7745;48.708;9.026;2023-03-01T00:19:29;21.33;;;15.77;;
15287;SDS011;7745;48.708;9.026;2023-03-01T00:22:12;22.07;;;15.80;;
15287;SDS011;7745;48.708;9.026;2023-03-01T00:25:08;22.93;;;15.60;;
15287;SDS011;7745;48.708;9.026;2023-03-01T00:28:23;23.20;;;15.27;;
15287;SDS011;7745;48.708;9.026;2023-03-01T00:31:21;21.93;;;15.17;;
15287;SDS011;7745;48.708;9.026;2023-03-01T00:34:30;23.80;;;14.93;;
15287;SDS011;7745;48.708;9.026;2023-03-01T00:37:06;20.57;;;14.33;;
15287;SDS011;7745;48.708;9.026;2023-03-01T00:39:49;22.73;;;14.63;;
15287;SDS011;7745;48.708;9.026;2023-03-01T00:42:43;22.07;;;14.97;;
15287;SDS011;7745;48.708;9.026;2023-03-01T00:45:35;22.40;;;14.73;;
15287;SDS011;7745;48.708;9.026;2023-03-01T00:48:21;24.27;;;14.87;;
15287;SDS011;7745;48.708;9.026;2023-03-01T00:51:10;24.33;;;15.67;;
15287;SDS011;7745;48.708;9.026;2023-03-01T00:53:43;23.27;;;14.97;;
15287;SDS011;7745;48.708;9.026;2023-03-01T00:56:19;23.57;;;14.93;;
15287;SDS011;7745;48.708;9.026;2023-03-01T00:59:04;21.33;;;15.50;;
15287;SDS011;7745;48.708;9.026;2023-03-01T01:01:39;23.70;;;15.67;;
15287;SDS011;7745;48.708;9.026;2023-03-01T01:04:18;21.27;;;14.97;;
15287;SDS011;7745;48.708;9.026;2023-03-01T01:06:53;21.47;;;14.93;;
15287;SDS011;7745;48.708;9.026;2023-03-01T01:09:32;22.60;;;15.87;;
15287;SDS011;7745;48.708;9.026;2023-03-01T01:12:10;21.23;;;14.47;;
15287;SDS011;7745;48.708;9.026;2023-03-01T01:14:44;26.77;;;15.23;;
15287;SDS011;7745;48.708;9.026;2023-03-01T01:17:20;23.83;;;16.00;;
15287;SDS011;7745;48.708;9.026;2023-03-01T01:19:50;24.17;;;16.13;;
15287;SDS011;7745;48.708;9.026;2023-03-01T01:22:30;28.03;;;16.47;;
15287;SDS011;7745;48.708;9.026;2023-03-01T01:25:04;23.67;;;16.07;;
15287;SDS011;7745;48.708;9.026;2023-03-01T01:27:40;23.70;;;16.03;;
15287;SDS011;7745;48.708;9.026;2023-03-01T01:30:15;22.37;;;15.97;;
15287;SDS011;7745;48.708;9.026;2023-03-01T01:32:52;23.23;;;15.00;;
15287;SDS011;7745;48.708;9.026;2023-03-01T01:35:29;24.03;;;15.77;;
15287;SDS011;7745;48.708;9.026;2023-03-01T01:38:03;25.33;;;16.43;;
15287;SDS011;7745;48.708;9.026;2023-03-01T01:40:42;23.23;;;16.27;;
15287;SDS011;7745;48.708;9.026;2023-03-01T01:43:26;22.80;;;15.47;;
15287;SDS011;7745;48.708;9.026;2023-03-01T01:46:18;24.97;;;16.73;;
15287;SDS011;7745;48.708;9.026;2023-03-01T01:48:56;24.80;;;17.07;;
15287;SDS011;7745;48.708;9.026;2023-03-01T01:51:45;26.13;;;17.00;;
15287;SDS011;7745;48.708;9.026;2023-03-01T01:57:27;27.03;;;16.83;;
15287;SDS011;7745;48.708;9.026;2023-03-01T02:00:16;27.17;;;17.43;;
15287;SDS011;7745;48.708;9.026;2023-03-01T02:02:54;27.47;;;16.73;;
15287;SDS011;7745;48.708;9.026;2023-03-01T02:05:28;25.90;;;17.43;;
15287;SDS011;7745;48.708;9.026;2023-03-01T02:08:10;25.80;;;17.17;;
15287;SDS011;7745;48.708;9.026;2023-03-01T02:10:52;23.10;;;16.50;;
15287;SDS011;7745;48.708;9.026;2023-03-01T02:13:30;27.70;;;18.00;;
15287;SDS011;7745;48.708;9.026;2023-03-01T02:16:16;27.43;;;17.87;;
15287;SDS011;7745;48.708;9.026;2023-03-01T02:18:50;24.80;;;17.40;;
15287;SDS011;7745;48.708;9.026;2023-03-01T02:21:31;27.57;;;17.57;;
15287;SDS011;7745;48.708;9.026;2023-03-01T02:24:21;29.00;;;17.27;;
15287;SDS011;7745;48.708;9.026;2023-03-01T02:26:59;28.97;;;17.40;;
15287;SDS011;7745;48.708;9.026;2023-03-01T02:29:36;25.47;;;17.40;;
15287;SDS011;7745;48.708;9.026;2023-03-01T02:32:13;24.13;;;16.97;;
15287;SDS011;7745;48.708;9.026;2023-03-01T02:34:54;26.07;;;17.63;;
15287;SDS011;7745;48.708;9.026;2023-03-01T02:37:27;22.37;;;16.43;;
15287;SDS011;7745;48.708;9.026;2023-03-01T02:40:16;26.07;;;17.03;;
15287;SDS011;7745;48.708;9.026;2023-03-01T02:42:51;25.97;;;17.87;;
15287;SDS011;7745;48.708;9.026;2023-03-01T02:45:27;23.30;;;16.80;;
15287;SDS011;7745;48.708;9.026;2023-03-01T02:47:59;22.53;;;16.47;;
15287;SDS011;7745;48.708;9.026;2023-03-01T02:50:39;27.80;;;16.87;;
15287;SDS011;7745;48.708;9.026;2023-03-01T02:53:25;26.30;;;17.27;;
15287;SDS011;7745;48.708;9.026;2023-03-01T02:56:18;25.10;;;17.13;;
15287;SDS011;7745;48.708;9.026;2023-03-01T02:59:12;25.70;;;17.33;;
15287;SDS011;7745;48.708;9.026;2023-03-01T03:02:01;25.63;;;17.63;;
15287;SDS011;7745;48.708;9.026;2023-03-01T03:05:15;24.77;;;16.80;;
15287;SDS011;7745;48.708;9.026;2023-03-01T03:08:17;28.33;;;18.63;;
15287;SDS011;7745;48.708;9.026;2023-03-01T03:10:51;25.40;;;16.80;;
15287;SDS011;7745;48.708;9.026;2023-03-01T03:13:36;25.87;;;17.63;;
15287;SDS011;7745;48.708;9.026;2023-03-01T03:16:46;27.00;;;17.83;;
15287;SDS011;7745;48.708;9.026;2023-03-01T03:22:22;24.00;;;17.03;;
15287;SDS011;7745;48.708;9.026;2023-03-01T03:25:02;24.30;;;17.43;;
15287;SDS011;7745;48.708;9.026;2023-03-01T03:27:40;24.70;;;17.17;;
15287;SDS011;7745;48.708;9.026;2023-03-01T03:30:36;27.17;;;17.30;;
15287;SDS011;7745;48.708;9.026;2023-03-01T03:33:20;27.47;;;17.93;;
15287;SDS011;7745;48.708;9.026;2023-03-01T03:35:56;27.20;;;18.40;;
15287;SDS011;7745;48.708;9.026;2023-03-01T03:38:44;27.13;;;18.13;;
15287;SDS011;7745;48.708;9.026;2023-03-01T03:45:04;22.90;;;16.63;;
15287;SDS011;7745;48.708;9.026;2023-03-01T03:47:51;27.73;;;18.43;;
15287;SDS011;7745;48.708;9.026;2023-03-01T03:50:36;29.27;;;17.97;;
15287;SDS011;7745;48.708;9.026;2023-03-01T03:53:58;23.63;;;17.17;;
15287;SDS011;7745;48.708;9.026;2023-03-01T03:56:45;25.60;;;17.83;;
15287;SDS011;7745;48.708;9.026;2023-03-01T04:00:48;26.53;;;18.07;;
15287;SDS011;7745;48.708;9.026;2023-03-01T04:03:10;24.83;;;17.17;;
15287;SDS011;7745;48.708;9.026;2023-03-01T04:05:58;27.33;;;17.07;;
15287;SDS011;7745;48.708;9.026;2023-03-01T04:08:52;28.30;;;18.90;;
15287;SDS011;7745;48.708;9.026;2023-03-01T04:11:49;30.03;;;18.20;;
15287;SDS011;7745;48.708;9.026;2023-03-01T04:14:54;25.73;;;17.63;;
15287;SDS011;7745;48.708;9.026;2023-03-01T04:17:47;25.73;;;17.70;;
15287;SDS011;7745;48.708;9.026;2023-03-01T04:20:36;29.20;;;18.80;;
15287;SDS011;7745;48.708;9.026;2023-03-01T04:26:35;25.10;;;17.47;;
15287;SDS011;7745;48.708;9.026;2023-03-01T04:29:39;24.93;;;17.67;;
15287;SDS011;7745;48.708;9.026;2023-03-01T04:32:25;27.23;;;17.80;;
15287;SDS011;7745;48.708;9.026;2023-03-01T04:35:37;28.43;;;18.93;;
15287;SDS011;7745;48.708;9.026;2023-03-01T04:38:42;27.13;;;18.57;;
15287;SDS011;7745;48.708;9.026;2023-03-01T04:45:03;27.43;;;18.43;;
15287;SDS011;7745;48.708;9.026;2023-03-01T04:48:07;28.23;;;17.60;;
15287;SDS011;7745;48.708;9.026;2023-03-01T04:50:59;25.53;;;17.77;;
15287;SDS011;7745;48.708;9.026;2023-03-01T04:53:49;27.60;;;18.83;;
15287;SDS011;7745;48.708;9.026;2023-03-01T04:56:40;28.43;;;18.33;;
15287;SDS011;7745;48.708;9.026;2023-03-01T05:09:35;25.50;;;18.40;;
15287;SDS011;7745;48.708;9.026;2023-03-01T05:12:25;29.37;;;19.20;;
15287;SDS011;7745;48.708;9.026;2023-03-01T05:15:48;29.30;;;18.57;;
15287;SDS011;7745;48.708;9.026;2023-03-01T05:18:46;27.27;;;18.60;;
15287;SDS011;7745;48.708;9.026;2023-03-01T05:21:50;28.67;;;19.80;;
15287;SDS011;7745;48.708;9.026;2023-03-01T05:28:02;30.43;;;19.90;;
15287;SDS011;7745;48.708;9.026;2023-03-01T05:30:57;28.23;;;19.10;;
15287;SDS011;7745;48.708;9.026;2023-03-01T05:34:26;26.67;;;18.47;;
15287;SDS011;7745;48.708;9.026;2023-03-01T05:39:44;28.73;;;18.63;;
15287;SDS011;7745;48.708;9.026;2023-03-01T05:46:31;27.27;;;18.57;;
15287;SDS011;7745;48.708;9.026;2023-03-01T05:49:30;29.00;;;19.07;;
15287;SDS011;7745;48.708;9.026;2023-03-01T05:52:44;29.90;;;20.27;;
15287;SDS011;7745;48.708;9.026;2023-03-01T05:59:15;30.40;;;19.80;;
15287;SDS011;7745;48.708;9.026;2023-03-01T06:05:25;28.07;;;18.83;;
15287;SDS011;7745;48.708;9.026;2023-03-01T06:08:36;28.73;;;19.53;;
15287;SDS011;7745;48.708;9.026;2023-03-01T06:11:47;30.33;;;20.37;;
15287;SDS011;7745;48.708;9.026;2023-03-01T06:14:54;27.37;;;19.07;;
15287;SDS011;7745;48.708;9.026;2023-03-01T06:18:02;27.17;;;18.90;;
15287;SDS011;7745;48.708;9.026;2023-03-01T06:24:08;26.03;;;18.83;;
15287;SDS011;7745;48.708;9.026;2023-03-01T06:26:59;30.87;;;20.13;;
15287;SDS011;7745;48.708;9.026;2023-03-01T06:33:41;28.57;;;18.30;;
15287;SDS011;7745;48.708;9.026;2023-03-01T06:36:09;29.10;;;19.90;;
15287;SDS011;7745;48.708;9.026;2023-03-01T06:38:36;28.97;;;19.77;;
15287;SDS011;7745;48.708;9.026;2023-03-01T06:41:05;30.40;;;20.23;;
15287;SDS011;7745;48.708;9.026;2023-03-01T06:43:33;27.13;;;19.50;;
15287;SDS011;7745;48.708;9.026;2023-03-01T06:46:00;27.80;;;18.80;;
15287;SDS011;7745;48.708;9.026;2023-03-01T06:48:29;26.80;;;17.97;;
15287;SDS011;7745;48.708;9.026;2023-03-01T06:50:59;28.13;;;20.13;;
15287;SDS011;7745;48.708;9.026;2023-03-01T06:53:26;29.13;;;19.80;;
15287;SDS011;7745;48.708;9.026;2023-03-01T06:55:54;28.57;;;18.83;;
15287;SDS011;7745;48.708;9.026;2023-03-01T06:58:21;28.70;;;19.27;;
15287;SDS011;7745;48.708;9.026;2023-03-01T07:00:48;26.90;;;19.47;;
15287;SDS011;7745;48.708;9.026;2023-03-01T07:03:14;28.70;;;19.67;;
15287;SDS011;7745;48.708;9.026;2023-03-01T07:05:41;30.97;;;19.97;;
15287;SDS011;7745;48.708;9.026;2023-03-01T07:08:10;28.83;;;19.13;;
15287;SDS011;7745;48.708;9.026;2023-03-01T07:10:37;30.27;;;19.47;;
15287;SDS011;7745;48.708;9.026;2023-03-01T07:13:04;24.07;;;18.70;;
15287;SDS011;7745;48.708;9.026;2023-03-01T07:15:32;29.17;;;19.93;;
15287;SDS011;7745;48.708;9.026;2023-03-01T07:17:58;31.93;;;20.13;;
15287;SDS011;7745;48.708;9.026;2023-03-01T07:20:25;27.90;;;18.77;;
15287;SDS011;7745;48.708;9.026;2023-03-01T07:22:52;33.90;;;19.37;;
15287;SDS011;7745;48.708;9.026;2023-03-01T07:25:21;27.90;;;18.53;;
15287;SDS011;7745;48.708;9.026;2023-03-01T07:27:49;27.57;;;19.37;;
15287;SDS011;7745;48.708;9.026;2023-03-01T07:30:17;29.27;;;20.07;;
15287;SDS011;7745;48.708;9.026;2023-03-01T07:32:44;30.77;;;18.93;;
15287;SDS011;7745;48.708;9.026;2023-03-01T07:35:11;30.47;;;20.10;;
15287;SDS011;7745;48.708;9.026;2023-03-01T07:37:39;30.80;;;20.90;;
15287;SDS011;7745;48.708;9.026;2023-03-01T07:40:07;30.07;;;20.27;;
15287;SDS011;7745;48.708;9.026;2023-03-01T07:42:36;27.53;;;18.97;;
15287;SDS011;7745;48.708;9.026;2023-03-01T07:45:03;28.90;;;19.87;;
15287;SDS011;7745;48.708;9.026;2023-03-01T07:47:31;28.10;;;19.73;;
15287;SDS011;7745;48.708;9.026;2023-03-01T07:49:59;26.60;;;18.73;;
15287;SDS011;7745;48.708;9.026;2023-03-01T07:52:27;29.73;;;19.63;;
15287;SDS011;7745;48.708;9.026;2023-03-01T07:54:54;29.80;;;20.80;;
15287;SDS011;7745;48.708;9.026;2023-03-01T07:57:21;28.47;;;20.57;;
15287;SDS011;7745;48.708;9.026;2023-03-01T07:59:49;28.20;;;19.97;;
15287;SDS011;7745;48.708;9.026;2023-03-01T08:02:26;34.10;;;20.27;;
15287;SDS011;7745;48.708;9.026;2023-03-01T08:05:05;27.00;;;19.43;;
15287;SDS011;7745;48.708;9.026;2023-03-01T08:10:48;27.70;;;19.73;;
15287;SDS011;7745;48.708;9.026;2023-03-01T08:11:36;29.93;;;19.87;;
15287;SDS011;7745;48.708;9.026;2023-03-01T08:14:16;30.67;;;19.67;;
15287;SDS011;7745;48.708;9.026;2023-03-01T08:19:57;29.53;;;19.57;;
15287;SDS011;7745;48.708;9.026;2023-03-01T08:22:26;29.37;;;19.40;;
15287;SDS011;7745;48.708;9.026;2023-03-01T08:25:12;29.53;;;20.87;;
15287;SDS011;7745;48.708;9.026;2023-03-01T08:27:58;28.23;;;19.27;;
15287;SDS011;7745;48.708;9.026;2023-03-01T08:30:29;32.60;;;20.37;;
15287;SDS011;7745;48.708;9.026;2023-03-01T08:36:02;28.67;;;19.20;;
15287;SDS011;7745;48.708;9.026;2023-03-01T08:38:31;32.40;;;19.33;;
15287;SDS011;7745;48.708;9.026;2023-03-01T08:40:59;29.30;;;19.87;;
15287;SDS011;7745;48.708;9.026;2023-03-01T08:43:32;31.93;;;20.37;;
15287;SDS011;7745;48.708;9.026;2023-03-01T08:46:02;29.70;;;20.37;;
15287;SDS011;7745;48.708;9.026;2023-03-01T08:48:33;29.80;;;19.57;;
15287;SDS011;7745;48.708;9.026;2023-03-01T08:51:08;31.10;;;20.13;;
15287;SDS011;7745;48.708;9.026;2023-03-01T08:53:49;28.27;;;20.13;;
15287;SDS011;7745;48.708;9.026;2023-03-01T08:56:38;28.60;;;19.47;;
15287;SDS011;7745;48.708;9.026;2023-03-01T09:03:15;30.77;;;20.93;;
15287;SDS011;7745;48.708;9.026;2023-03-01T09:15:53;30.37;;;20.30;;
15287;SDS011;7745;48.708;9.026;2023-03-01T09:24:37;27.77;;;20.27;;
15287;SDS011;7745;48.708;9.026;2023-03-01T09:27:05;28.17;;;20.27;;
15287;SDS011;7745;48.708;9.026;2023-03-01T09:29:43;29.57;;;19.17;;
15287;SDS011;7745;48.708;9.026;2023-03-01T09:32:11;29.33;;;20.80;;
15287;SDS011;7745;48.708;9.026;2023-03-01T09:34:38;31.17;;;20.67;;
15287;SDS011;7745;48.708;9.026;2023-03-01T09:37:18;28.10;;;19.93;;
15287;SDS011;7745;48.708;9.026;2023-03-01T09:39:46;31.37;;;20.40;;
15287;SDS011;7745;48.708;9.026;2023-03-01T09:42:13;32.87;;;21.10;;
15287;SDS011;7745;48.708;9.026;2023-03-01T09:44:45;30.57;;;20.70;;
15287;SDS011;7745;48.708;9.026;2023-03-01T09:47:19;33.20;;;20.90;;
15287;SDS011;7745;48.708;9.026;2023-03-01T09:49:53;30.00;;;20.53;;
15287;SDS011;7745;48.708;9.026;2023-03-01T09:52:29;30.47;;;20.87;;
15287;SDS011;7745;48.708;9.026;2023-03-01T09:55:05;30.07;;;21.03;;
15287;SDS011;7745;48.708;9.026;2023-03-01T09:57:42;30.20;;;19.23;;
15287;SDS011;7745;48.708;9.026;2023-03-01T10:00:22;33.53;;;19.80;;
15287;SDS011;7745;48.708;9.026;2023-03-01T10:02:57;32.73;;;20.67;;
15287;SDS011;7745;48.708;9.026;2023-03-01T10:05:34;32.60;;;21.67;;
15287;SDS011;7745;48.708;9.026;2023-03-01T10:10:56;33.67;;;21.60;;
15287;SDS011;7745;48.708;9.026;2023-03-01T10:13:27;28.63;;;20.37;;
15287;SDS011;7745;48.708;9.026;2023-03-01T10:16:01;31.77;;;20.90;;
15287;SDS011;7745;48.708;9.026;2023-03-01T10:18:36;29.17;;;20.23;;
15287;SDS011;7745;48.708;9.026;2023-03-01T10:21:19;31.17;;;21.57;;
15287;SDS011;7745;48.708;9.026;2023-03-01T10:23:50;31.00;;;20.43;;
15287;SDS011;7745;48.708;9.026;2023-03-01T10:26:26;29.83;;;20.03;;
15287;SDS011;7745;48.708;9.026;2023-03-01T10:29:05;26.93;;;19.57;;
15287;SDS011;7745;48.708;9.026;2023-03-01T10:31:39;29.00;;;19.93;;
15287;SDS011;7745;48.708;9.026;2023-03-01T10:34:20;33.23;;;21.53;;
15287;SDS011;7745;48.708;9.026;2023-03-01T10:36:53;28.07;;;19.70;;
15287;SDS011;7745;48.708;9.026;2023-03-01T10:39:24;31.70;;;20.47;;
15287;SDS011;7745;48.708;9.026;2023-03-01T10:41:59;32.67;;;21.13;;
15287;SDS011;7745;48.708;9.026;2023-03-01T10:44:38;27.40;;;19.93;;
15287;SDS011;7745;48.708;9.026;2023-03-01T10:47:13;30.10;;;19.57;;
15287;SDS011;7745;48.708;9.026;2023-03-01T10:49:52;31.53;;;20.13;;
15287;SDS011;7745;48.708;9.026;2023-03-01T10:52:27;28.70;;;21.27;;
15287;SDS011;7745;48.708;9.026;2023-03-01T10:54:57;25.00;;;18.93;;
15287;SDS011;7745;48.708;9.026;2023-03-01T10:57:29;28.73;;;19.73;;
15287;SDS011;7745;48.708;9.026;2023-03-01T11:00:02;26.10;;;19.30;;
15287;SDS011;7745;48.708;9.026;2023-03-01T11:02:49;25.43;;;18.73;;
15287;SDS011;7745;48.708;9.026;2023-03-01T11:05:28;28.67;;;19.07;;
15287;SDS011;7745;48.708;9.026;2023-03-01T11:07:56;26.03;;;19.10;;
15287;SDS011;7745;48.708;9.026;2023-03-01T11:10:25;30.10;;;18.50;;
15287;SDS011;7745;48.708;9.026;2023-03-01T11:13:05;25.73;;;19.53;;
15287;SDS011;7745;48.708;9.026;2023-03-01T11:15:59;26.50;;;19.33;;
15287;SDS011;7745;48.708;9.026;2023-03-01T11:19:04;28.27;;;20.10;;
15287;SDS011;7745;48.708;9.026;2023-03-01T11:25:44;24.93;;;18.60;;
15287;SDS011;7745;48.708;9.026;2023-03-01T11:28:37;27.03;;;18.80;;
15287;SDS011;7745;48.708;9.026;2023-03-01T11:31:11;24.70;;;18.17;;
15287;SDS011;7745;48.708;9.026;2023-03-01T11:34:03;28.57;;;19.20;;
15287;SDS011;7745;48.708;9.026;2023-03-01T11:36:38;26.00;;;18.67;;
15287;SDS011;7745;48.708;9.026;2023-03-01T11:46:18;25.00;;;18.70;;
15287;SDS011;7745;48.708;9.026;2023-03-01T11:52:29;27.30;;;18.87;;
15287;SDS011;7745;48.708;9.026;2023-03-01T11:55:35;28.27;;;18.40;;
15287;SDS011;7745;48.708;9.026;2023-03-01T12:12:34;23.67;;;16.43;;
15287;SDS011;7745;48.708;9.026;2023-03-01T12:21:40;24.73;;;17.70;;
15287;SDS011;7745;48.708;9.026;2023-03-01T12:24:39;23.50;;;17.70;;
15287;SDS011;7745;48.708;9.026;2023-03-01T12:57:40;24.70;;;17.97;;
15287;SDS011;7745;48.708;9.026;2023-03-01T13:00:22;24.30;;;16.73;;
15287;SDS011;7745;48.708;9.026;2023-03-01T13:56:33;18.90;;;14.23;;
15287;SDS011;7745;48.708;9.026;2023-03-01T13:59:15;22.60;;;16.00;;
15287;SDS011;7745;48.708;9.026;2023-03-01T14:06:06;21.83;;;15.87;;
15287;SDS011;7745;48.708;9.026;2023-03-01T14:08:48;19.83;;;15.70;;
15287;SDS011;7745;48.708;9.026;2023-03-01T14:21:36;22.47;;;16.67;;
15287;SDS011;7745;48.708;9.026;2023-03-01T14:24:40;25.50;;;17.07;;
15287;SDS011;7745;48.708;9.026;2023-03-01T15:17:50;23.37;;;17.73;;
15287;SDS011;7745;48.708;9.026;2023-03-01T15:20:48;26.70;;;19.30;;
15287;SDS011;7745;48.708;9.026;2023-03-01T15:23:33;22.67;;;18.30;;
15287;SDS011;7745;48.708;9.026;2023-03-01T15:37:02;25.97;;;18.90;;
15287;SDS011;7745;48.708;9.026;2023-03-01T15:39:55;23.40;;;17.90;;
15287;SDS011;7745;48.708;9.026;2023-03-01T15:42:38;26.97;;;18.27;;
15287;SDS011;7745;48.708;9.026;2023-03-01T15:45:27;23.60;;;17.73;;
15287;SDS011;7745;48.708;9.026;2023-03-01T15:48:25;24.80;;;19.07;;
15287;SDS011;7745;48.708;9.026;2023-03-01T15:55:17;27.03;;;17.27;;
15287;SDS011;7745;48.708;9.026;2023-03-01T16:01:34;26.07;;;18.80;;
15287;SDS011;7745;48.708;9.026;2023-03-01T16:08:38;24.50;;;17.33;;
15287;SDS011;7745;48.708;9.026;2023-03-01T16:21:51;26.60;;;18.17;;
15287;SDS011;7745;48.708;9.026;2023-03-01T16:24:55;24.70;;;17.90;;
15287;SDS011;7745;48.708;9.026;2023-03-01T16:30:49;25.50;;;18.10;;
15287;SDS011;7745;48.708;9.026;2023-03-01T16:33:32;24.43;;;17.93;;
15287;SDS011;7745;48.708;9.026;2023-03-01T16:36:06;28.00;;;18.23;;
15287;SDS011;7745;48.708;9.026;2023-03-01T16:38:35;24.87;;;18.67;;
15287;SDS011;7745;48.708;9.026;2023-03-01T16:41:05;27.70;;;18.43;;
15287;SDS011;7745;48.708;9.026;2023-03-01T16:47:15;24.13;;;17.47;;
15287;SDS011;7745;48.708;9.026;2023-03-01T17:06:06;27.23;;;18.20;;
15287;SDS011;7745;48.708;9.026;2023-03-01T17:08:38;24.33;;;17.37;;
15287;SDS011;7745;48.708;9.026;2023-03-01T17:15:18;24.00;;;17.20;;
15287;SDS011;7745;48.708;9.026;2023-03-01T17:18:12;25.33;;;16.90;;
15287;SDS011;7745;48.708;9.026;2023-03-01T17:20:54;23.53;;;17.70;;
15287;SDS011;7745;48.708;9.026;2023-03-01T17:29:27;24.53;;;17.70;;
15287;SDS011;7745;48.708;9.026;2023-03-01T17:38:24;24.97;;;17.30;;
15287;SDS011;7745;48.708;9.026;2023-03-01T17:40:59;22.57;;;16.93;;
15287;SDS011;7745;48.708;9.026;2023-03-01T18:04:28;27.13;;;17.20;;
15287;SDS011;7745;48.708;9.026;2023-03-01T18:06:59;24.70;;;17.87;;
15287;SDS011;7745;48.708;9.026;2023-03-01T18:09:26;29.00;;;18.13;;
15287;SDS011;7745;48.708;9.026;2023-03-01T18:11:58;32.00;;;18.73;;
15287;SDS011;7745;48.708;9.026;2023-03-01T18:21:12;24.03;;;18.27;;
15287;SDS011;7745;48.708;9.026;2023-03-01T18:27:16;23.47;;;16.73;;
15287;SDS011;7745;48.708;9.026;2023-03-01T18:31:10;25.90;;;18.73;;
15287;SDS011;7745;48.708;9.026;2023-03-01T18:37:52;24.57;;;16.63;;
15287;SDS011;7745;48.708;9.026;2023-03-01T22:07:58;32.03;;;20.77;;
15287;SDS011;7745;48.708;9.026;2023-03-01T22:10:25;32.00;;;21.80;;
15287;SDS011;7745;48.708;9.026;2023-03-01T22:12:55;30.23;;;20.80;;
15287;SDS011;7745;48.708;9.026;2023-03-01T22:15:23;32.10;;;21.27;;
15287;SDS011;7745;48.708;9.026;2023-03-01T22:18:00;29.07;;;20.27;;
15287;SDS011;7745;48.708;9.026;2023-03-01T22:20:29;31.73;;;21.13;;
